sensor_id;sensor_type;location;lat;lon;timestamp;P1;durP1;ratioP1;P2;durP2;ratioP2
67348;SDS011;54234;50.320;3.474;2022-07-26T00:00:46;0.30;;;0.30;;
67348;SDS011;54234;50.320;3.474;2022-07-26T00:03:12;0.20;;;0.20;;
67348;SDS011;54234;50.320;3.474;2022-07-26T00:05:37;0.30;;;0.30;;
67348;SDS011;54234;50.320;3.474;2022-07-26T00:08:03;0.30;;;0.30;;
67348;SDS011;54234;50.320;3.474;2022-07-26T00:10:35;0.30;;;0.30;;
67348;SDS011;54234;50.320;3.474;2022-07-26T00:13:00;0.30;;;0.30;;
67348;SDS011;54234;50.320;3.474;2022-07-26T00:15:25;0.30;;;0.30;;
67348;SDS011;54234;50.320;3.474;2022-07-26T00:17:51;0.30;;;0.30;;
67348;SDS011;54234;50.320;3.474;2022-07-26T00:20:16;0.20;;;0.20;;
67348;SDS011;54234;50.320;3.474;2022-07-26T00:22:41;0.30;;;0.30;;
67348;SDS011;54234;50.320;3.474;2022-07-26T00:25:07;0.30;;;0.30;;
67348;SDS011;54234;50.320;3.474;2022-07-26T00:27:33;0.30;;;0.30;;
67348;SDS011;54234;50.320;3.474;2022-07-26T00:30:00;0.30;;;0.30;;
67348;SDS011;54234;50.320;3.474;2022-07-26T00:32:26;0.30;;;0.30;;
67348;SDS011;54234;50.320;3.474;2022-07-26T00:34:51;0.20;;;0.20;;
67348;SDS011;54234;50.320;3.474;2022-07-26T00:37:16;0.30;;;0.30;;
67348;SDS011;54234;50.320;3.474;2022-07-26T00:39:42;0.22;;;0.22;;
67348;SDS011;54234;50.320;3.474;2022-07-26T00:42:07;0.30;;;0.30;;
67348;SDS011;54234;50.320;3.474;2022-07-26T00:44:39;0.30;;;0.30;;
67348;SDS011;54234;50.320;3.474;2022-07-26T00:47:05;0.30;;;0.30;;
67348;SDS011;54234;50.320;3.474;2022-07-26T00:49:30;0.30;;;0.30;;
67348;SDS011;54234;50.320;3.474;2022-07-26T00:51:56;0.30;;;0.30;;
67348;SDS011;54234;50.320;3.474;2022-07-26T00:54:21;0.30;;;0.30;;
67348;SDS011;54234;50.320;3.474;2022-07-26T00:56:46;0.30;;;0.30;;
67348;SDS011;54234;50.320;3.474;2022-07-26T00:59:12;0.30;;;0.30;;
67348;SDS011;54234;50.320;3.474;2022-07-26T01:01:37;0.30;;;0.30;;
67348;SDS011;54234;50.320;3.474;2022-07-26T01:04:02;0.30;;;0.30;;
67348;SDS011;54234;50.320;3.474;2022-07-26T01:06:27;0.30;;;0.30;;
67348;SDS011;54234;50.320;3.474;2022-07-26T01:08:53;0.30;;;0.30;;
67348;SDS011;54234;50.320;3.474;2022-07-26T01:11:18;0.30;;;0.30;;
67348;SDS011;54234;50.320;3.474;2022-07-26T01:13:47;0.30;;;0.30;;
67348;SDS011;54234;50.320;3.474;2022-07-26T01:16:12;0.30;;;0.30;;
67348;SDS011;54234;50.320;3.474;2022-07-26T01:18:38;0.30;;;0.30;;
67348;SDS011;54234;50.320;3.474;2022-07-26T01:21:03;0.30;;;0.30;;
67348;SDS011;54234;50.320;3.474;2022-07-26T01:23:30;0.30;;;0.30;;
67348;SDS011;54234;50.320;3.474;2022-07-26T01:25:57;0.30;;;0.30;;
67348;SDS011;54234;50.320;3.474;2022-07-26T01:28:22;0.27;;;0.27;;
67348;SDS011;54234;50.320;3.474;2022-07-26T01:30:47;0.20;;;0.20;;
67348;SDS011;54234;50.320;3.474;2022-07-26T01:33:13;0.20;;;0.20;;
67348;SDS011;54234;50.320;3.474;2022-07-26T01:35:38;0.30;;;0.30;;
67348;SDS011;54234;50.320;3.474;2022-07-26T01:38:03;0.20;;;0.20;;
67348;SDS011;54234;50.320;3.474;2022-07-26T01:40:28;0.30;;;0.30;;
67348;SDS011;54234;50.320;3.474;2022-07-26T01:42:54;0.30;;;0.30;;
67348;SDS011;54234;50.320;3.474;2022-07-26T01:45:19;0.30;;;0.30;;
67348;SDS011;54234;50.320;3.474;2022-07-26T01:47:44;0.30;;;0.30;;
67348;SDS011;54234;50.320;3.474;2022-07-26T01:50:14;0.30;;;0.30;;
67348;SDS011;54234;50.320;3.474;2022-07-26T01:52:39;0.30;;;0.30;;
67348;SDS011;54234;50.320;3.474;2022-07-26T01:55:05;0.27;;;0.27;;
67348;SDS011;54234;50.320;3.474;2022-07-26T01:57:30;0.20;;;0.20;;
67348;SDS011;54234;50.320;3.474;2022-07-26T01:59:55;0.20;;;0.20;;
67348;SDS011;54234;50.320;3.474;2022-07-26T02:02:20;0.30;;;0.30;;
67348;SDS011;54234;50.320;3.474;2022-07-26T02:04:46;0.30;;;0.30;;
67348;SDS011;54234;50.320;3.474;2022-07-26T02:07:23;0.30;;;0.30;;
67348;SDS011;54234;50.320;3.474;2022-07-26T02:09:49;0.30;;;0.30;;
67348;SDS011;54234;50.320;3.474;2022-07-26T02:12:14;0.30;;;0.30;;
67348;SDS011;54234;50.320;3.474;2022-07-26T02:14:40;0.30;;;0.30;;
67348;SDS011;54234;50.320;3.474;2022-07-26T02:17:05;0.30;;;0.30;;
67348;SDS011;54234;50.320;3.474;2022-07-26T02:19:31;0.30;;;0.30;;
67348;SDS011;54234;50.320;3.474;2022-07-26T02:21:56;0.30;;;0.30;;
67348;SDS011;54234;50.320;3.474;2022-07-26T02:24:22;0.30;;;0.30;;
67348;SDS011;54234;50.320;3.474;2022-07-26T02:26:47;0.30;;;0.30;;
67348;SDS011;54234;50.320;3.474;2022-07-26T02:29:13;0.30;;;0.30;;
67348;SDS011;54234;50.320;3.474;2022-07-26T02:31:38;0.30;;;0.30;;
67348;SDS011;54234;50.320;3.474;2022-07-26T02:34:03;0.30;;;0.30;;
67348;SDS011;54234;50.320;3.474;2022-07-26T02:36:28;0.30;;;0.30;;
67348;SDS011;54234;50.320;3.474;2022-07-26T02:38:54;0.30;;;0.30;;
67348;SDS011;54234;50.320;3.474;2022-07-26T02:41:19;0.30;;;0.30;;
67348;SDS011;54234;50.320;3.474;2022-07-26T02:43:44;0.30;;;0.30;;
67348;SDS011;54234;50.320;3.474;2022-07-26T02:46:09;0.30;;;0.30;;
67348;SDS011;54234;50.320;3.474;2022-07-26T02:48:35;0.30;;;0.30;;
67348;SDS011;54234;50.320;3.474;2022-07-26T02:51:00;0.30;;;0.30;;
67348;SDS011;54234;50.320;3.474;2022-07-26T02:53:25;0.30;;;0.30;;
67348;SDS011;54234;50.320;3.474;2022-07-26T02:55:50;0.30;;;0.30;;
67348;SDS011;54234;50.320;3.474;2022-07-26T02:58:16;0.30;;;0.30;;
67348;SDS011;54234;50.320;3.474;2022-07-26T03:00:41;0.30;;;0.30;;
67348;SDS011;54234;50.320;3.474;2022-07-26T03:03:06;0.30;;;0.30;;
67348;SDS011;54234;50.320;3.474;2022-07-26T03:05:31;0.30;;;0.30;;
67348;SDS011;54234;50.320;3.474;2022-07-26T03:07:57;0.30;;;0.30;;
67348;SDS011;54234;50.320;3.474;2022-07-26T03:10:22;0.25;;;0.25;;
67348;SDS011;54234;50.320;3.474;2022-07-26T03:12:48;0.30;;;0.30;;
67348;SDS011;54234;50.320;3.474;2022-07-26T03:15:13;0.30;;;0.30;;
67348;SDS011;54234;50.320;3.474;2022-07-26T03:17:38;0.30;;;0.30;;
67348;SDS011;54234;50.320;3.474;2022-07-26T03:20:04;0.30;;;0.30;;
67348;SDS011;54234;50.320;3.474;2022-07-26T03:22:29;0.30;;;0.30;;
67348;SDS011;54234;50.320;3.474;2022-07-26T03:24:55;0.30;;;0.30;;
67348;SDS011;54234;50.320;3.474;2022-07-26T03:27:20;0.30;;;0.30;;
67348;SDS011;54234;50.320;3.474;2022-07-26T03:29:45;0.30;;;0.30;;
67348;SDS011;54234;50.320;3.474;2022-07-26T03:32:10;0.30;;;0.30;;
67348;SDS011;54234;50.320;3.474;2022-07-26T03:34:35;0.30;;;0.30;;
67348;SDS011;54234;50.320;3.474;2022-07-26T03:37:01;0.30;;;0.30;;
67348;SDS011;54234;50.320;3.474;2022-07-26T03:39:26;0.30;;;0.30;;
67348;SDS011;54234;50.320;3.474;2022-07-26T03:41:51;0.30;;;0.30;;
67348;SDS011;54234;50.320;3.474;2022-07-26T03:44:17;0.30;;;0.30;;
67348;SDS011;54234;50.320;3.474;2022-07-26T03:46:42;0.30;;;0.30;;
67348;SDS011;54234;50.320;3.474;2022-07-26T03:49:07;0.30;;;0.30;;
67348;SDS011;54234;50.320;3.474;2022-07-26T03:51:32;0.25;;;0.25;;
67348;SDS011;54234;50.320;3.474;2022-07-26T03:53:58;0.30;;;0.30;;
67348;SDS011;54234;50.320;3.474;2022-07-26T03:56:23;0.30;;;0.30;;
67348;SDS011;54234;50.320;3.474;2022-07-26T03:59:00;0.20;;;0.20;;
67348;SDS011;54234;50.320;3.474;2022-07-26T04:01:26;0.30;;;0.30;;
67348;SDS011;54234;50.320;3.474;2022-07-26T04:03:52;0.30;;;0.30;;
67348;SDS011;54234;50.320;3.474;2022-07-26T04:06:17;0.30;;;0.30;;
67348;SDS011;54234;50.320;3.474;2022-07-26T04:08:42;0.30;;;0.30;;
67348;SDS011;54234;50.320;3.474;2022-07-26T04:11:08;0.30;;;0.30;;
67348;SDS011;54234;50.320;3.474;2022-07-26T04:13:33;0.30;;;0.30;;
67348;SDS011;54234;50.320;3.474;2022-07-26T04:15:59;0.30;;;0.30;;
67348;SDS011;54234;50.320;3.474;2022-07-26T04:18:24;0.30;;;0.30;;
67348;SDS011;54234;50.320;3.474;2022-07-26T04:20:49;0.30;;;0.30;;
67348;SDS011;54234;50.320;3.474;2022-07-26T04:23:15;0.30;;;0.30;;
67348;SDS011;54234;50.320;3.474;2022-07-26T04:25:40;0.30;;;0.30;;
67348;SDS011;54234;50.320;3.474;2022-07-26T04:28:05;0.30;;;0.30;;
67348;SDS011;54234;50.320;3.474;2022-07-26T04:30:31;0.30;;;0.30;;
67348;SDS011;54234;50.320;3.474;2022-07-26T04:32:56;0.30;;;0.30;;
67348;SDS011;54234;50.320;3.474;2022-07-26T04:35:21;0.30;;;0.30;;
67348;SDS011;54234;50.320;3.474;2022-07-26T04:37:46;0.30;;;0.30;;
67348;SDS011;54234;50.320;3.474;2022-07-26T04:40:21;0.30;;;0.30;;
67348;SDS011;54234;50.320;3.474;2022-07-26T04:42:46;0.30;;;0.30;;
67348;SDS011;54234;50.320;3.474;2022-07-26T04:45:12;0.30;;;0.30;;
67348;SDS011;54234;50.320;3.474;2022-07-26T04:47:41;0.30;;;0.30;;
67348;SDS011;54234;50.320;3.474;2022-07-26T04:50:06;0.30;;;0.30;;
67348;SDS011;54234;50.320;3.474;2022-07-26T04:52:32;0.30;;;0.30;;
67348;SDS011;54234;50.320;3.474;2022-07-26T04:54:57;0.30;;;0.30;;
67348;SDS011;54234;50.320;3.474;2022-07-26T04:57:22;0.30;;;0.30;;
67348;SDS011;54234;50.320;3.474;2022-07-26T04:59:47;0.27;;;0.27;;
67348;SDS011;54234;50.320;3.474;2022-07-26T05:02:12;0.30;;;0.30;;
67348;SDS011;54234;50.320;3.474;2022-07-26T05:04:39;0.30;;;0.30;;
67348;SDS011;54234;50.320;3.474;2022-07-26T05:07:04;0.30;;;0.30;;
67348;SDS011;54234;50.320;3.474;2022-07-26T05:09:29;0.30;;;0.30;;
67348;SDS011;54234;50.320;3.474;2022-07-26T05:11:54;0.30;;;0.30;;
67348;SDS011;54234;50.320;3.474;2022-07-26T05:14:20;0.30;;;0.30;;
67348;SDS011;54234;50.320;3.474;2022-07-26T05:16:45;0.30;;;0.30;;
67348;SDS011;54234;50.320;3.474;2022-07-26T05:19:11;0.30;;;0.30;;
67348;SDS011;54234;50.320;3.474;2022-07-26T05:21:39;0.30;;;0.30;;
67348;SDS011;54234;50.320;3.474;2022-07-26T05:24:04;0.30;;;0.30;;
67348;SDS011;54234;50.320;3.474;2022-07-26T05:26:29;0.30;;;0.30;;
67348;SDS011;54234;50.320;3.474;2022-07-26T05:28:55;0.30;;;0.30;;
67348;SDS011;54234;50.320;3.474;2022-07-26T05:31:20;0.30;;;0.30;;
67348;SDS011;54234;50.320;3.474;2022-07-26T05:33:45;0.30;;;0.30;;
67348;SDS011;54234;50.320;3.474;2022-07-26T05:36:10;0.30;;;0.30;;
67348;SDS011;54234;50.320;3.474;2022-07-26T05:38:36;0.30;;;0.30;;
67348;SDS011;54234;50.320;3.474;2022-07-26T05:41:01;0.30;;;0.30;;
67348;SDS011;54234;50.320;3.474;2022-07-26T05:43:27;0.20;;;0.20;;
67348;SDS011;54234;50.320;3.474;2022-07-26T05:45:52;0.30;;;0.30;;
67348;SDS011;54234;50.320;3.474;2022-07-26T05:48:18;0.30;;;0.30;;
67348;SDS011;54234;50.320;3.474;2022-07-26T05:50:43;0.20;;;0.20;;
67348;SDS011;54234;50.320;3.474;2022-07-26T05:53:08;0.30;;;0.30;;
67348;SDS011;54234;50.320;3.474;2022-07-26T05:55:34;0.30;;;0.30;;
67348;SDS011;54234;50.320;3.474;2022-07-26T05:57:59;0.30;;;0.30;;
67348;SDS011;54234;50.320;3.474;2022-07-26T06:00:24;0.30;;;0.30;;
67348;SDS011;54234;50.320;3.474;2022-07-26T06:02:49;0.30;;;0.30;;
67348;SDS011;54234;50.320;3.474;2022-07-26T06:05:15;0.30;;;0.30;;
67348;SDS011;54234;50.320;3.474;2022-07-26T06:07:40;0.30;;;0.30;;
67348;SDS011;54234;50.320;3.474;2022-07-26T06:10:05;0.30;;;0.30;;
67348;SDS011;54234;50.320;3.474;2022-07-26T06:12:30;0.30;;;0.30;;
67348;SDS011;54234;50.320;3.474;2022-07-26T06:14:56;0.30;;;0.30;;
67348;SDS011;54234;50.320;3.474;2022-07-26T06:17:21;0.30;;;0.30;;
67348;SDS011;54234;50.320;3.474;2022-07-26T06:19:46;0.30;;;0.30;;
67348;SDS011;54234;50.320;3.474;2022-07-26T06:22:11;0.30;;;0.30;;
67348;SDS011;54234;50.320;3.474;2022-07-26T06:24:37;0.30;;;0.30;;
67348;SDS011;54234;50.320;3.474;2022-07-26T06:27:02;0.30;;;0.30;;
67348;SDS011;54234;50.320;3.474;2022-07-26T06:29:28;0.30;;;0.30;;
67348;SDS011;54234;50.320;3.474;2022-07-26T06:31:53;0.30;;;0.30;;
67348;SDS011;54234;50.320;3.474;2022-07-26T06:34:19;0.30;;;0.30;;
67348;SDS011;54234;50.320;3.474;2022-07-26T06:36:44;0.30;;;0.30;;
67348;SDS011;54234;50.320;3.474;2022-07-26T06:39:09;0.30;;;0.30;;
67348;SDS011;54234;50.320;3.474;2022-07-26T06:41:35;0.30;;;0.30;;
67348;SDS011;54234;50.320;3.474;2022-07-26T06:44:00;0.30;;;0.30;;
67348;SDS011;54234;50.320;3.474;2022-07-26T06:46:25;0.30;;;0.30;;
67348;SDS011;54234;50.320;3.474;2022-07-26T06:48:51;0.30;;;0.30;;
67348;SDS011;54234;50.320;3.474;2022-07-26T06:51:16;0.30;;;0.30;;
67348;SDS011;54234;50.320;3.474;2022-07-26T06:53:42;0.30;;;0.30;;
67348;SDS011;54234;50.320;3.474;2022-07-26T06:56:07;0.30;;;0.30;;
67348;SDS011;54234;50.320;3.474;2022-07-26T06:58:32;0.30;;;0.30;;
67348;SDS011;54234;50.320;3.474;2022-07-26T07:00:58;0.30;;;0.30;;
67348;SDS011;54234;50.320;3.474;2022-07-26T07:03:23;0.30;;;0.30;;
67348;SDS011;54234;50.320;3.474;2022-07-26T07:05:48;0.30;;;0.30;;
67348;SDS011;54234;50.320;3.474;2022-07-26T07:08:13;0.30;;;0.30;;
67348;SDS011;54234;50.320;3.474;2022-07-26T07:10:39;0.30;;;0.30;;
67348;SDS011;54234;50.320;3.474;2022-07-26T07:13:04;0.30;;;0.30;;
67348;SDS011;54234;50.320;3.474;2022-07-26T07:15:29;0.30;;;0.30;;
67348;SDS011;54234;50.320;3.474;2022-07-26T07:17:55;0.30;;;0.30;;
67348;SDS011;54234;50.320;3.474;2022-07-26T07:20:20;0.30;;;0.30;;
67348;SDS011;54234;50.320;3.474;2022-07-26T07:22:45;0.30;;;0.30;;
67348;SDS011;54234;50.320;3.474;2022-07-26T07:25:10;0.30;;;0.30;;
67348;SDS011;54234;50.320;3.474;2022-07-26T07:27:36;0.30;;;0.30;;
67348;SDS011;54234;50.320;3.474;2022-07-26T07:30:01;0.20;;;0.20;;
67348;SDS011;54234;50.320;3.474;2022-07-26T07:32:27;0.30;;;0.30;;
67348;SDS011;54234;50.320;3.474;2022-07-26T07:34:52;0.30;;;0.30;;
67348;SDS011;54234;50.320;3.474;2022-07-26T07:37:17;0.30;;;0.30;;
67348;SDS011;54234;50.320;3.474;2022-07-26T07:39:43;0.30;;;0.30;;
67348;SDS011;54234;50.320;3.474;2022-07-26T07:42:08;0.30;;;0.30;;
67348;SDS011;54234;50.320;3.474;2022-07-26T07:44:33;0.30;;;0.30;;
67348;SDS011;54234;50.320;3.474;2022-07-26T07:46:58;0.30;;;0.30;;
67348;SDS011;54234;50.320;3.474;2022-07-26T07:49:24;0.30;;;0.30;;
67348;SDS011;54234;50.320;3.474;2022-07-26T07:51:49;0.30;;;0.30;;
67348;SDS011;54234;50.320;3.474;2022-07-26T07:54:14;0.30;;;0.30;;
67348;SDS011;54234;50.320;3.474;2022-07-26T07:56:40;0.30;;;0.30;;
67348;SDS011;54234;50.320;3.474;2022-07-26T07:59:05;0.30;;;0.30;;
67348;SDS011;54234;50.320;3.474;2022-07-26T08:01:31;0.30;;;0.30;;
67348;SDS011;54234;50.320;3.474;2022-07-26T08:03:56;0.30;;;0.30;;
67348;SDS011;54234;50.320;3.474;2022-07-26T08:06:21;0.30;;;0.30;;
67348;SDS011;54234;50.320;3.474;2022-07-26T08:08:46;0.30;;;0.30;;
67348;SDS011;54234;50.320;3.474;2022-07-26T08:11:11;0.30;;;0.30;;
67348;SDS011;54234;50.320;3.474;2022-07-26T08:13:37;0.30;;;0.30;;
67348;SDS011;54234;50.320;3.474;2022-07-26T08:16:02;0.30;;;0.30;;
67348;SDS011;54234;50.320;3.474;2022-07-26T08:18:27;0.30;;;0.30;;
67348;SDS011;54234;50.320;3.474;2022-07-26T08:20:53;0.30;;;0.30;;
67348;SDS011;54234;50.320;3.474;2022-07-26T08:23:18;0.30;;;0.30;;
67348;SDS011;54234;50.320;3.474;2022-07-26T08:25:44;0.30;;;0.30;;
67348;SDS011;54234;50.320;3.474;2022-07-26T08:28:09;0.30;;;0.30;;
67348;SDS011;54234;50.320;3.474;2022-07-26T08:30:34;0.30;;;0.30;;
67348;SDS011;54234;50.320;3.474;2022-07-26T08:32:59;0.30;;;0.30;;
67348;SDS011;54234;50.320;3.474;2022-07-26T08:35:25;0.30;;;0.30;;
67348;SDS011;54234;50.320;3.474;2022-07-26T08:37:50;0.30;;;0.30;;
67348;SDS011;54234;50.320;3.474;2022-07-26T08:40:15;0.30;;;0.30;;
67348;SDS011;54234;50.320;3.474;2022-07-26T08:42:47;0.30;;;0.30;;
67348;SDS011;54234;50.320;3.474;2022-07-26T08:45:13;0.30;;;0.30;;
67348;SDS011;54234;50.320;3.474;2022-07-26T08:47:43;0.30;;;0.30;;
67348;SDS011;54234;50.320;3.474;2022-07-26T08:50:08;0.30;;;0.30;;
67348;SDS011;54234;50.320;3.474;2022-07-26T08:52:34;0.30;;;0.30;;
67348;SDS011;54234;50.320;3.474;2022-07-26T08:54:59;0.30;;;0.30;;
67348;SDS011;54234;50.320;3.474;2022-07-26T08:57:24;0.30;;;0.30;;
67348;SDS011;54234;50.320;3.474;2022-07-26T09:00:12;0.30;;;0.30;;
67348;SDS011;54234;50.320;3.474;2022-07-26T09:02:38;0.30;;;0.30;;
67348;SDS011;54234;50.320;3.474;2022-07-26T09:05:04;0.30;;;0.30;;
67348;SDS011;54234;50.320;3.474;2022-07-26T09:07:30;0.30;;;0.30;;
67348;SDS011;54234;50.320;3.474;2022-07-26T09:09:58;0.30;;;0.30;;
67348;SDS011;54234;50.320;3.474;2022-07-26T09:12:23;0.30;;;0.30;;
67348;SDS011;54234;50.320;3.474;2022-07-26T09:14:49;0.30;;;0.30;;
67348;SDS011;54234;50.320;3.474;2022-07-26T09:17:16;0.30;;;0.30;;
67348;SDS011;54234;50.320;3.474;2022-07-26T09:19:42;0.30;;;0.30;;
67348;SDS011;54234;50.320;3.474;2022-07-26T09:22:09;0.30;;;0.30;;
67348;SDS011;54234;50.320;3.474;2022-07-26T09:24:45;0.40;;;0.40;;
67348;SDS011;54234;50.320;3.474;2022-07-26T09:27:12;0.30;;;0.30;;
67348;SDS011;54234;50.320;3.474;2022-07-26T09:29:44;0.30;;;0.30;;
67348;SDS011;54234;50.320;3.474;2022-07-26T09:32:10;0.30;;;0.30;;
67348;SDS011;54234;50.320;3.474;2022-07-26T09:34:37;0.30;;;0.30;;
67348;SDS011;54234;50.320;3.474;2022-07-26T09:37:02;0.32;;;0.32;;
67348;SDS011;54234;50.320;3.474;2022-07-26T09:39:28;0.40;;;0.40;;
67348;SDS011;54234;50.320;3.474;2022-07-26T09:41:53;0.40;;;0.40;;
67348;SDS011;54234;50.320;3.474;2022-07-26T09:44:25;0.40;;;0.40;;
67348;SDS011;54234;50.320;3.474;2022-07-26T09:46:51;0.40;;;0.40;;
67348;SDS011;54234;50.320;3.474;2022-07-26T09:49:17;0.40;;;0.40;;
67348;SDS011;54234;50.320;3.474;2022-07-26T09:51:44;0.40;;;0.40;;
67348;SDS011;54234;50.320;3.474;2022-07-26T09:54:10;0.40;;;0.40;;
67348;SDS011;54234;50.320;3.474;2022-07-26T09:59:11;0.47;;;0.47;;
67348;SDS011;54234;50.320;3.474;2022-07-26T10:01:36;0.47;;;0.47;;
67348;SDS011;54234;50.320;3.474;2022-07-26T10:04:02;0.40;;;0.40;;
67348;SDS011;54234;50.320;3.474;2022-07-26T10:06:27;0.40;;;0.40;;
67348;SDS011;54234;50.320;3.474;2022-07-26T10:08:52;0.40;;;0.40;;
67348;SDS011;54234;50.320;3.474;2022-07-26T10:11:18;0.40;;;0.40;;
67348;SDS011;54234;50.320;3.474;2022-07-26T10:13:44;0.40;;;0.40;;
67348;SDS011;54234;50.320;3.474;2022-07-26T10:16:29;0.40;;;0.40;;
67348;SDS011;54234;50.320;3.474;2022-07-26T10:18:55;0.40;;;0.40;;
67348;SDS011;54234;50.320;3.474;2022-07-26T10:21:25;0.40;;;0.40;;
67348;SDS011;54234;50.320;3.474;2022-07-26T10:23:58;0.40;;;0.40;;
67348;SDS011;54234;50.320;3.474;2022-07-26T10:28:55;0.40;;;0.40;;
67348;SDS011;54234;50.320;3.474;2022-07-26T10:31:40;0.30;;;0.30;;
67348;SDS011;54234;50.320;3.474;2022-07-26T10:34:06;0.40;;;0.40;;
67348;SDS011;54234;50.320;3.474;2022-07-26T10:36:33;0.40;;;0.40;;
67348;SDS011;54234;50.320;3.474;2022-07-26T10:44:14;0.40;;;0.40;;
67348;SDS011;54234;50.320;3.474;2022-07-26T10:47:25;0.30;;;0.30;;
67348;SDS011;54234;50.320;3.474;2022-07-26T10:49:29;0.40;;;0.40;;
67348;SDS011;54234;50.320;3.474;2022-07-26T10:52:04;0.30;;;0.30;;
67348;SDS011;54234;50.320;3.474;2022-07-26T10:54:30;0.40;;;0.40;;
67348;SDS011;54234;50.320;3.474;2022-07-26T10:56:55;0.30;;;0.30;;
67348;SDS011;54234;50.320;3.474;2022-07-26T10:59:32;0.30;;;0.30;;
67348;SDS011;54234;50.320;3.474;2022-07-26T11:01:58;0.40;;;0.40;;
67348;SDS011;54234;50.320;3.474;2022-07-26T11:04:23;0.40;;;0.40;;
67348;SDS011;54234;50.320;3.474;2022-07-26T11:06:49;0.33;;;0.33;;
67348;SDS011;54234;50.320;3.474;2022-07-26T11:09:15;0.30;;;0.30;;
67348;SDS011;54234;50.320;3.474;2022-07-26T11:11:42;0.30;;;0.30;;
67348;SDS011;54234;50.320;3.474;2022-07-26T11:16:42;0.30;;;0.30;;
67348;SDS011;54234;50.320;3.474;2022-07-26T11:19:14;0.30;;;0.30;;
67348;SDS011;54234;50.320;3.474;2022-07-26T11:21:40;0.30;;;0.30;;
67348;SDS011;54234;50.320;3.474;2022-07-26T11:24:06;0.40;;;0.40;;
67348;SDS011;54234;50.320;3.474;2022-07-26T11:26:31;0.40;;;0.40;;
67348;SDS011;54234;50.320;3.474;2022-07-26T11:29:04;0.40;;;0.40;;
67348;SDS011;54234;50.320;3.474;2022-07-26T11:34:04;0.30;;;0.30;;
67348;SDS011;54234;50.320;3.474;2022-07-26T11:36:36;0.40;;;0.40;;
67348;SDS011;54234;50.320;3.474;2022-07-26T11:39:03;0.30;;;0.30;;
67348;SDS011;54234;50.320;3.474;2022-07-26T11:41:29;0.40;;;0.40;;
67348;SDS011;54234;50.320;3.474;2022-07-26T11:43:55;0.32;;;0.32;;
67348;SDS011;54234;50.320;3.474;2022-07-26T11:46:21;0.30;;;0.30;;
67348;SDS011;54234;50.320;3.474;2022-07-26T11:48:50;0.40;;;0.40;;
67348;SDS011;54234;50.320;3.474;2022-07-26T11:51:19;0.40;;;0.40;;
67348;SDS011;54234;50.320;3.474;2022-07-26T11:53:45;0.40;;;0.40;;
67348;SDS011;54234;50.320;3.474;2022-07-26T11:56:11;0.40;;;0.40;;
67348;SDS011;54234;50.320;3.474;2022-07-26T11:58:40;0.40;;;0.40;;
67348;SDS011;54234;50.320;3.474;2022-07-26T12:01:06;0.30;;;0.30;;
67348;SDS011;54234;50.320;3.474;2022-07-26T12:03:35;0.38;;;0.38;;
67348;SDS011;54234;50.320;3.474;2022-07-26T12:06:07;0.38;;;0.38;;
67348;SDS011;54234;50.320;3.474;2022-07-26T12:11:04;0.35;;;0.35;;
67348;SDS011;54234;50.320;3.474;2022-07-26T12:13:29;0.40;;;0.40;;
67348;SDS011;54234;50.320;3.474;2022-07-26T12:15:55;0.40;;;0.40;;
67348;SDS011;54234;50.320;3.474;2022-07-26T12:18:27;0.40;;;0.40;;
67348;SDS011;54234;50.320;3.474;2022-07-26T12:20:56;0.40;;;0.40;;
67348;SDS011;54234;50.320;3.474;2022-07-26T12:23:21;0.47;;;0.47;;
67348;SDS011;54234;50.320;3.474;2022-07-26T12:25:46;0.50;;;0.50;;
67348;SDS011;54234;50.320;3.474;2022-07-26T12:28:12;0.40;;;0.40;;
67348;SDS011;54234;50.320;3.474;2022-07-26T12:30:37;0.40;;;0.40;;
67348;SDS011;54234;50.320;3.474;2022-07-26T12:33:02;0.40;;;0.40;;
67348;SDS011;54234;50.320;3.474;2022-07-26T12:35:28;0.40;;;0.40;;
67348;SDS011;54234;50.320;3.474;2022-07-26T12:37:56;0.40;;;0.40;;
67348;SDS011;54234;50.320;3.474;2022-07-26T12:40:28;0.40;;;0.40;;
67348;SDS011;54234;50.320;3.474;2022-07-26T12:45:25;0.40;;;0.40;;
67348;SDS011;54234;50.320;3.474;2022-07-26T12:47:51;0.40;;;0.40;;
67348;SDS011;54234;50.320;3.474;2022-07-26T12:50:17;0.30;;;0.30;;
67348;SDS011;54234;50.320;3.474;2022-07-26T12:52:43;0.30;;;0.30;;
67348;SDS011;54234;50.320;3.474;2022-07-26T12:55:09;0.30;;;0.30;;
67348;SDS011;54234;50.320;3.474;2022-07-26T12:57:39;0.30;;;0.30;;
67348;SDS011;54234;50.320;3.474;2022-07-26T13:00:05;0.30;;;0.30;;
67348;SDS011;54234;50.320;3.474;2022-07-26T13:02:31;0.40;;;0.40;;
67348;SDS011;54234;50.320;3.474;2022-07-26T13:04:56;0.40;;;0.40;;
67348;SDS011;54234;50.320;3.474;2022-07-26T13:07:21;0.50;;;0.50;;
67348;SDS011;54234;50.320;3.474;2022-07-26T13:09:47;0.50;;;0.50;;
67348;SDS011;54234;50.320;3.474;2022-07-26T13:12:13;0.43;;;0.43;;
67348;SDS011;54234;50.320;3.474;2022-07-26T13:14:38;0.50;;;0.50;;
67348;SDS011;54234;50.320;3.474;2022-07-26T13:17:04;0.40;;;0.40;;
67348;SDS011;54234;50.320;3.474;2022-07-26T13:19:29;0.40;;;0.40;;
67348;SDS011;54234;50.320;3.474;2022-07-26T13:21:55;0.40;;;0.40;;
67348;SDS011;54234;50.320;3.474;2022-07-26T13:24:21;0.40;;;0.40;;
67348;SDS011;54234;50.320;3.474;2022-07-26T13:26:46;0.40;;;0.40;;
67348;SDS011;54234;50.320;3.474;2022-07-26T13:29:11;0.40;;;0.40;;
67348;SDS011;54234;50.320;3.474;2022-07-26T13:31:36;0.30;;;0.30;;
67348;SDS011;54234;50.320;3.474;2022-07-26T13:34:02;0.40;;;0.40;;
67348;SDS011;54234;50.320;3.474;2022-07-26T13:36:27;0.40;;;0.40;;
67348;SDS011;54234;50.320;3.474;2022-07-26T13:38:53;0.50;;;0.50;;
67348;SDS011;54234;50.320;3.474;2022-07-26T13:41:18;0.50;;;0.50;;
67348;SDS011;54234;50.320;3.474;2022-07-26T13:43:43;0.50;;;0.50;;
67348;SDS011;54234;50.320;3.474;2022-07-26T13:46:09;0.50;;;0.50;;
67348;SDS011;54234;50.320;3.474;2022-07-26T13:48:34;0.47;;;0.47;;
67348;SDS011;54234;50.320;3.474;2022-07-26T13:50:59;0.40;;;0.40;;
67348;SDS011;54234;50.320;3.474;2022-07-26T13:53:24;0.40;;;0.40;;
67348;SDS011;54234;50.320;3.474;2022-07-26T13:55:50;0.40;;;0.40;;
67348;SDS011;54234;50.320;3.474;2022-07-26T13:58:15;0.30;;;0.30;;
67348;SDS011;54234;50.320;3.474;2022-07-26T14:00:40;0.40;;;0.40;;
67348;SDS011;54234;50.320;3.474;2022-07-26T14:03:06;0.40;;;0.40;;
67348;SDS011;54234;50.320;3.474;2022-07-26T14:05:31;0.30;;;0.30;;
67348;SDS011;54234;50.320;3.474;2022-07-26T14:07:56;0.30;;;0.30;;
67348;SDS011;54234;50.320;3.474;2022-07-26T14:10:22;0.30;;;0.30;;
67348;SDS011;54234;50.320;3.474;2022-07-26T14:12:47;0.37;;;0.37;;
67348;SDS011;54234;50.320;3.474;2022-07-26T14:15:12;0.38;;;0.38;;
67348;SDS011;54234;50.320;3.474;2022-07-26T14:17:38;0.30;;;0.30;;
67348;SDS011;54234;50.320;3.474;2022-07-26T14:20:03;0.30;;;0.30;;
67348;SDS011;54234;50.320;3.474;2022-07-26T14:22:29;0.40;;;0.40;;
67348;SDS011;54234;50.320;3.474;2022-07-26T14:24:54;0.40;;;0.40;;
67348;SDS011;54234;50.320;3.474;2022-07-26T14:27:19;0.30;;;0.30;;
67348;SDS011;54234;50.320;3.474;2022-07-26T14:29:44;0.37;;;0.37;;
67348;SDS011;54234;50.320;3.474;2022-07-26T14:32:10;0.30;;;0.30;;
67348;SDS011;54234;50.320;3.474;2022-07-26T14:34:36;0.40;;;0.40;;
67348;SDS011;54234;50.320;3.474;2022-07-26T14:37:01;0.30;;;0.30;;
67348;SDS011;54234;50.320;3.474;2022-07-26T14:39:26;0.30;;;0.30;;
67348;SDS011;54234;50.320;3.474;2022-07-26T14:41:52;0.40;;;0.40;;
67348;SDS011;54234;50.320;3.474;2022-07-26T14:44:17;0.40;;;0.40;;
67348;SDS011;54234;50.320;3.474;2022-07-26T14:46:42;0.40;;;0.40;;
67348;SDS011;54234;50.320;3.474;2022-07-26T14:49:08;0.40;;;0.40;;
67348;SDS011;54234;50.320;3.474;2022-07-26T14:51:34;0.30;;;0.30;;
67348;SDS011;54234;50.320;3.474;2022-07-26T14:54:00;0.40;;;0.40;;
67348;SDS011;54234;50.320;3.474;2022-07-26T14:56:25;0.30;;;0.30;;
67348;SDS011;54234;50.320;3.474;2022-07-26T14:58:50;0.30;;;0.30;;
67348;SDS011;54234;50.320;3.474;2022-07-26T15:01:15;0.30;;;0.30;;